sensor_id;sensor_type;location;lat;lon;timestamp;pressure;altitude;pressure_sealevel;temperature;humidity
82870;BME280;72645;47.136;15.420;2024-01-30T00:00:44;98827.00;;;-2.22;64.24
82870;BME280;72645;47.136;15.420;2024-01-30T00:03:16;98825.48;;;-2.25;64.44
82870;BME280;72645;47.136;15.420;2024-01-30T00:05:47;98824.79;;;-2.26;64.65
82870;BME280;72645;47.136;15.420;2024-01-30T00:08:18;98827.88;;;-2.26;64.71
82870;BME280;72645;47.136;15.420;2024-01-30T00:10:49;98827.22;;;-2.27;64.90
82870;BME280;72645;47.136;15.420;2024-01-30T00:13:20;98825.84;;;-2.27;64.91
82870;BME280;72645;47.136;15.420;2024-01-30T00:15:52;98823.58;;;-2.25;64.88
82870;BME280;72645;47.136;15.420;2024-01-30T00:18:23;98822.49;;;-2.19;64.18
82870;BME280;72645;47.136;15.420;2024-01-30T00:20:54;98820.92;;;-2.15;64.33
82870;BME280;72645;47.136;15.420;2024-01-30T00:23:25;98822.23;;;-2.10;64.14
82870;BME280;72645;47.136;15.420;2024-01-30T00:25:56;98825.65;;;-2.07;64.13
82870;BME280;72645;47.136;15.420;2024-01-30T00:28:27;98825.36;;;-2.13;64.37
82870;BME280;72645;47.136;15.420;2024-01-30T00:30:58;98826.50;;;-2.24;64.58
82870;BME280;72645;47.136;15.420;2024-01-30T00:33:30;98827.05;;;-2.29;64.88
82870;BME280;72645;47.136;15.420;2024-01-30T00:36:01;98825.48;;;-2.26;65.05
82870;BME280;72645;47.136;15.420;2024-01-30T00:38:32;98824.93;;;-2.21;64.91
82870;BME280;72645;47.136;15.420;2024-01-30T00:41:03;98828.16;;;-2.19;64.82
82870;BME280;72645;47.136;15.420;2024-01-30T00:43:34;98832.29;;;-2.20;64.86
82870;BME280;72645;47.136;15.420;2024-01-30T00:46:05;98835.09;;;-2.26;64.88
82870;BME280;72645;47.136;15.420;2024-01-30T00:48:36;98836.40;;;-2.39;65.51
82870;BME280;72645;47.136;15.420;2024-01-30T00:51:08;98833.26;;;-2.52;65.50
82870;BME280;72645;47.136;15.420;2024-01-30T00:53:39;98829.52;;;-2.59;65.95
82870;BME280;72645;47.136;15.420;2024-01-30T00:56:11;98828.20;;;-2.66;65.97
82870;BME280;72645;47.136;15.420;2024-01-30T00:58:42;98816.95;;;-2.72;66.03
82870;BME280;72645;47.136;15.420;2024-01-30T01:01:14;98815.23;;;-2.74;65.91
82870;BME280;72645;47.136;15.420;2024-01-30T01:03:45;98817.65;;;-2.75;65.86
82870;BME280;72645;47.136;15.420;2024-01-30T01:06:18;98814.58;;;-2.76;66.26
82870;BME280;72645;47.136;15.420;2024-01-30T01:08:49;98812.52;;;-2.77;66.58
82870;BME280;72645;47.136;15.420;2024-01-30T01:11:20;98812.05;;;-2.83;66.43
82870;BME280;72645;47.136;15.420;2024-01-30T01:13:51;98817.54;;;-2.85;66.40
82870;BME280;72645;47.136;15.420;2024-01-30T01:16:20;98815.14;;;-2.84;66.40
82870;BME280;72645;47.136;15.420;2024-01-30T01:18:52;98821.98;;;-2.80;66.17
82870;BME280;72645;47.136;15.420;2024-01-30T01:21:23;98820.55;;;-2.73;65.88
82870;BME280;72645;47.136;15.420;2024-01-30T01:23:54;98815.69;;;-2.65;65.79
82870;BME280;72645;47.136;15.420;2024-01-30T01:26:26;98812.86;;;-2.54;65.44
82870;BME280;72645;47.136;15.420;2024-01-30T01:28:56;98813.83;;;-2.45;65.65
82870;BME280;72645;47.136;15.420;2024-01-30T01:31:27;98813.94;;;-2.38;65.57
82870;BME280;72645;47.136;15.420;2024-01-30T01:33:59;98808.30;;;-2.43;65.61
82870;BME280;72645;47.136;15.420;2024-01-30T01:36:30;98807.36;;;-2.52;65.47
82870;BME280;72645;47.136;15.420;2024-01-30T01:39:01;98806.86;;;-2.53;65.76
82870;BME280;72645;47.136;15.420;2024-01-30T01:41:33;98803.92;;;-2.50;65.56
82870;BME280;72645;47.136;15.420;2024-01-30T01:44:04;98805.27;;;-2.48;65.70
82870;BME280;72645;47.136;15.420;2024-01-30T01:46:36;98805.35;;;-2.57;65.87
82870;BME280;72645;47.136;15.420;2024-01-30T01:49:08;98789.88;;;-2.75;65.80
82870;BME280;72645;47.136;15.420;2024-01-30T01:51:39;98805.96;;;-2.70;65.70
82870;BME280;72645;47.136;15.420;2024-01-30T01:54:13;98803.92;;;-2.71;65.66
82870;BME280;72645;47.136;15.420;2024-01-30T01:56:45;98804.45;;;-2.75;65.90
82870;BME280;72645;47.136;15.420;2024-01-30T01:59:16;98805.85;;;-2.79;65.86
82870;BME280;72645;47.136;15.420;2024-01-30T02:01:49;98801.45;;;-2.85;66.01
82870;BME280;72645;47.136;15.420;2024-01-30T02:04:20;98798.93;;;-2.94;66.10
82870;BME280;72645;47.136;15.420;2024-01-30T02:06:52;98799.30;;;-2.98;66.01
82870;BME280;72645;47.136;15.420;2024-01-30T02:09:23;98797.76;;;-2.99;66.20
82870;BME280;72645;47.136;15.420;2024-01-30T02:11:55;98793.65;;;-3.00;66.59
82870;BME280;72645;47.136;15.420;2024-01-30T02:14:26;98794.86;;;-3.00;66.49
82870;BME280;72645;47.136;15.420;2024-01-30T02:17:00;98800.20;;;-3.06;66.56
82870;BME280;72645;47.136;15.420;2024-01-30T02:19:31;98799.23;;;-3.11;66.74
82870;BME280;72645;47.136;15.420;2024-01-30T02:22:02;98797.70;;;-3.15;66.81
82870;BME280;72645;47.136;15.420;2024-01-30T02:24:33;98796.49;;;-3.16;66.90
82870;BME280;72645;47.136;15.420;2024-01-30T02:27:03;98793.60;;;-3.17;66.67
82870;BME280;72645;47.136;15.420;2024-01-30T02:29:34;98792.56;;;-3.17;66.95
82870;BME280;72645;47.136;15.420;2024-01-30T02:32:06;98792.58;;;-3.20;66.95
82870;BME280;72645;47.136;15.420;2024-01-30T02:34:37;98788.64;;;-3.19;66.99
82870;BME280;72645;47.136;15.420;2024-01-30T02:37:08;98786.77;;;-3.19;67.09
82870;BME280;72645;47.136;15.420;2024-01-30T02:39:39;98784.85;;;-3.15;66.87
82870;BME280;72645;47.136;15.420;2024-01-30T02:42:10;98784.45;;;-3.07;66.67
82870;BME280;72645;47.136;15.420;2024-01-30T02:44:41;98781.14;;;-2.99;66.74
82870;BME280;72645;47.136;15.420;2024-01-30T02:47:12;98782.50;;;-2.96;66.75
82870;BME280;72645;47.136;15.420;2024-01-30T02:49:44;98780.75;;;-2.91;66.64
82870;BME280;72645;47.136;15.420;2024-01-30T02:52:15;98778.30;;;-2.85;66.48
82870;BME280;72645;47.136;15.420;2024-01-30T02:54:46;98781.70;;;-2.80;66.39
82870;BME280;72645;47.136;15.420;2024-01-30T02:57:17;98779.30;;;-2.80;66.30
82870;BME280;72645;47.136;15.420;2024-01-30T02:59:48;98783.08;;;-2.82;66.05
82870;BME280;72645;47.136;15.420;2024-01-30T03:02:19;98784.48;;;-2.87;66.00
82870;BME280;72645;47.136;15.420;2024-01-30T03:04:50;98784.72;;;-2.96;65.95
82870;BME280;72645;47.136;15.420;2024-01-30T03:07:21;98783.23;;;-3.04;65.97
82870;BME280;72645;47.136;15.420;2024-01-30T03:09:53;98785.68;;;-3.13;65.87
82870;BME280;72645;47.136;15.420;2024-01-30T03:12:25;98777.19;;;-3.23;66.17
82870;BME280;72645;47.136;15.420;2024-01-30T03:14:56;98780.15;;;-3.30;66.52
82870;BME280;72645;47.136;15.420;2024-01-30T03:17:27;98777.81;;;-3.41;66.66
82870;BME280;72645;47.136;15.420;2024-01-30T03:19:58;98779.39;;;-3.49;66.88
82870;BME280;72645;47.136;15.420;2024-01-30T03:22:29;98781.13;;;-3.54;66.94
82870;BME280;72645;47.136;15.420;2024-01-30T03:25:01;98780.80;;;-3.57;67.11
82870;BME280;72645;47.136;15.420;2024-01-30T03:27:32;98777.76;;;-3.66;67.68
82870;BME280;72645;47.136;15.420;2024-01-30T03:30:03;98777.60;;;-3.72;67.89
82870;BME280;72645;47.136;15.420;2024-01-30T03:32:34;98771.98;;;-3.78;68.11
82870;BME280;72645;47.136;15.420;2024-01-30T03:35:07;98774.55;;;-3.79;68.23
82870;BME280;72645;47.136;15.420;2024-01-30T03:37:38;98775.39;;;-3.77;68.22
82870;BME280;72645;47.136;15.420;2024-01-30T03:40:08;98773.31;;;-3.69;68.03
82870;BME280;72645;47.136;15.420;2024-01-30T03:42:39;98770.17;;;-3.58;67.90
82870;BME280;72645;47.136;15.420;2024-01-30T03:45:11;98767.73;;;-3.46;67.74
82870;BME280;72645;47.136;15.420;2024-01-30T03:47:44;98770.56;;;-3.33;67.69
82870;BME280;72645;47.136;15.420;2024-01-30T03:50:16;98766.91;;;-3.22;67.43
82870;BME280;72645;47.136;15.420;2024-01-30T03:52:47;98769.11;;;-3.18;67.57
82870;BME280;72645;47.136;15.420;2024-01-30T03:55:18;98775.61;;;-3.19;67.41
82870;BME280;72645;47.136;15.420;2024-01-30T03:57:49;98775.31;;;-3.25;67.07
82870;BME280;72645;47.136;15.420;2024-01-30T04:00:20;98772.26;;;-3.28;67.13
82870;BME280;72645;47.136;15.420;2024-01-30T04:02:51;98771.06;;;-3.29;66.90
82870;BME280;72645;47.136;15.420;2024-01-30T04:05:22;98773.98;;;-3.32;66.79
82870;BME280;72645;47.136;15.420;2024-01-30T04:07:53;98768.39;;;-3.42;66.97
82870;BME280;72645;47.136;15.420;2024-01-30T04:10:23;98779.19;;;-3.43;66.96
82870;BME280;72645;47.136;15.420;2024-01-30T04:12:54;98779.89;;;-3.47;67.24
82870;BME280;72645;47.136;15.420;2024-01-30T04:15:25;98779.76;;;-3.54;67.40
82870;BME280;72645;47.136;15.420;2024-01-30T04:17:58;98783.39;;;-3.68;68.03
82870;BME280;72645;47.136;15.420;2024-01-30T04:20:30;98783.13;;;-3.84;68.17
82870;BME280;72645;47.136;15.420;2024-01-30T04:23:02;98778.39;;;-3.98;68.23
82870;BME280;72645;47.136;15.420;2024-01-30T04:25:33;98776.85;;;-4.01;68.08
82870;BME280;72645;47.136;15.420;2024-01-30T04:28:02;98776.86;;;-4.05;68.36
82870;BME280;72645;47.136;15.420;2024-01-30T04:30:34;98777.20;;;-4.06;68.08
82870;BME280;72645;47.136;15.420;2024-01-30T04:33:03;98779.77;;;-4.07;68.47
82870;BME280;72645;47.136;15.420;2024-01-30T04:35:35;98781.30;;;-4.06;69.37
82870;BME280;72645;47.136;15.420;2024-01-30T04:38:06;98779.42;;;-4.06;69.24
82870;BME280;72645;47.136;15.420;2024-01-30T04:40:37;98781.14;;;-4.04;69.52
82870;BME280;72645;47.136;15.420;2024-01-30T04:43:08;98780.43;;;-3.97;69.22
82870;BME280;72645;47.136;15.420;2024-01-30T04:45:40;98782.63;;;-3.88;69.16
82870;BME280;72645;47.136;15.420;2024-01-30T04:48:11;98778.84;;;-3.79;68.74
82870;BME280;72645;47.136;15.420;2024-01-30T04:50:42;98778.80;;;-3.72;68.48
82870;BME280;72645;47.136;15.420;2024-01-30T04:53:11;98777.41;;;-3.67;68.27
82870;BME280;72645;47.136;15.420;2024-01-30T04:55:42;98785.64;;;-3.67;68.25
82870;BME280;72645;47.136;15.420;2024-01-30T04:58:11;98778.82;;;-3.76;68.34
82870;BME280;72645;47.136;15.420;2024-01-30T05:00:43;98779.85;;;-3.79;68.72
82870;BME280;72645;47.136;15.420;2024-01-30T05:03:15;98775.77;;;-3.81;68.45
82870;BME280;72645;47.136;15.420;2024-01-30T05:05:47;98775.25;;;-3.83;68.78
82870;BME280;72645;47.136;15.420;2024-01-30T05:08:18;98777.63;;;-3.77;68.84
82870;BME280;72645;47.136;15.420;2024-01-30T05:10:49;98782.42;;;-3.75;68.51
82870;BME280;72645;47.136;15.420;2024-01-30T05:13:19;98779.67;;;-3.74;68.50
82870;BME280;72645;47.136;15.420;2024-01-30T05:15:50;98778.13;;;-3.74;68.41
82870;BME280;72645;47.136;15.420;2024-01-30T05:18:19;98779.70;;;-3.79;68.44
82870;BME280;72645;47.136;15.420;2024-01-30T05:20:51;98782.12;;;-3.84;68.64
82870;BME280;72645;47.136;15.420;2024-01-30T05:23:22;98779.39;;;-3.89;68.40
82870;BME280;72645;47.136;15.420;2024-01-30T05:25:51;98788.45;;;-3.91;68.45
82870;BME280;72645;47.136;15.420;2024-01-30T05:28:22;98786.92;;;-3.94;68.25
82870;BME280;72645;47.136;15.420;2024-01-30T05:30:53;98792.23;;;-3.96;68.22
82870;BME280;72645;47.136;15.420;2024-01-30T05:33:25;98794.11;;;-3.99;68.59
82870;BME280;72645;47.136;15.420;2024-01-30T05:35:56;98790.52;;;-4.02;68.39
82870;BME280;72645;47.136;15.420;2024-01-30T05:38:25;98791.23;;;-4.05;68.52
82870;BME280;72645;47.136;15.420;2024-01-30T05:40:55;98793.30;;;-4.06;68.98
82870;BME280;72645;47.136;15.420;2024-01-30T05:43:27;98793.12;;;-4.08;69.01
82870;BME280;72645;47.136;15.420;2024-01-30T05:45:58;98783.04;;;-4.13;68.68
82870;BME280;72645;47.136;15.420;2024-01-30T05:48:28;98790.91;;;-4.14;68.75
82870;BME280;72645;47.136;15.420;2024-01-30T05:50:59;98790.23;;;-4.18;69.11
82870;BME280;72645;47.136;15.420;2024-01-30T05:53:30;98791.95;;;-4.24;69.08
82870;BME280;72645;47.136;15.420;2024-01-30T05:56:00;98796.73;;;-4.28;69.47
82870;BME280;72645;47.136;15.420;2024-01-30T05:58:32;98790.42;;;-4.31;69.89
82870;BME280;72645;47.136;15.420;2024-01-30T06:01:01;98791.97;;;-4.33;69.66
82870;BME280;72645;47.136;15.420;2024-01-30T06:03:33;98792.15;;;-4.37;69.84
82870;BME280;72645;47.136;15.420;2024-01-30T06:06:02;98794.55;;;-4.39;69.89
82870;BME280;72645;47.136;15.420;2024-01-30T06:08:33;98796.94;;;-4.39;69.95
82870;BME280;72645;47.136;15.420;2024-01-30T06:11:02;98793.52;;;-4.38;69.68
82870;BME280;72645;47.136;15.420;2024-01-30T06:13:33;98793.16;;;-4.32;69.65
82870;BME280;72645;47.136;15.420;2024-01-30T06:16:03;98791.11;;;-4.25;69.51
82870;BME280;72645;47.136;15.420;2024-01-30T06:18:35;98790.59;;;-4.21;69.43
82870;BME280;72645;47.136;15.420;2024-01-30T06:21:05;98783.57;;;-4.20;69.51
82870;BME280;72645;47.136;15.420;2024-01-30T06:23:40;98787.65;;;-4.10;69.47
82870;BME280;72645;47.136;15.420;2024-01-30T06:26:09;98786.42;;;-4.01;69.44
82870;BME280;72645;47.136;15.420;2024-01-30T06:28:40;98786.55;;;-3.90;69.36
82870;BME280;72645;47.136;15.420;2024-01-30T06:31:09;98791.84;;;-3.80;69.15
82870;BME280;72645;47.136;15.420;2024-01-30T06:33:40;98790.98;;;-3.73;68.94
82870;BME280;72645;47.136;15.420;2024-01-30T06:36:12;98790.95;;;-3.69;69.06
82870;BME280;72645;47.136;15.420;2024-01-30T06:38:44;98785.12;;;-3.68;68.87
82870;BME280;72645;47.136;15.420;2024-01-30T06:41:13;98781.03;;;-3.73;68.59
82870;BME280;72645;47.136;15.420;2024-01-30T06:43:44;98781.91;;;-3.80;68.42
82870;BME280;72645;47.136;15.420;2024-01-30T06:46:16;98779.54;;;-3.89;68.60
82870;BME280;72645;47.136;15.420;2024-01-30T06:48:47;98781.27;;;-3.93;68.82
82870;BME280;72645;47.136;15.420;2024-01-30T06:51:18;98784.36;;;-3.95;69.00
82870;BME280;72645;47.136;15.420;2024-01-30T06:53:49;98785.05;;;-3.94;69.20
82870;BME280;72645;47.136;15.420;2024-01-30T06:56:18;98792.56;;;-3.94;69.03
82870;BME280;72645;47.136;15.420;2024-01-30T06:58:50;98795.30;;;-3.95;69.08
82870;BME280;72645;47.136;15.420;2024-01-30T07:01:22;98800.27;;;-3.94;69.07
82870;BME280;72645;47.136;15.420;2024-01-30T07:03:58;98802.66;;;-3.93;69.01
82870;BME280;72645;47.136;15.420;2024-01-30T07:06:29;98799.40;;;-3.91;69.05
82870;BME280;72645;47.136;15.420;2024-01-30T07:09:00;98800.25;;;-3.92;68.92
82870;BME280;72645;47.136;15.420;2024-01-30T07:11:33;98802.15;;;-3.96;69.04
82870;BME280;72645;47.136;15.420;2024-01-30T07:14:02;98800.13;;;-4.01;69.09
82870;BME280;72645;47.136;15.420;2024-01-30T07:16:34;98799.27;;;-4.03;69.48
82870;BME280;72645;47.136;15.420;2024-01-30T07:19:05;98799.61;;;-4.04;69.99
82870;BME280;72645;47.136;15.420;2024-01-30T07:21:39;98799.27;;;-4.01;69.88
82870;BME280;72645;47.136;15.420;2024-01-30T07:24:10;98798.73;;;-3.91;70.30
82870;BME280;72645;47.136;15.420;2024-01-30T07:26:42;98803.77;;;-3.71;70.28
82870;BME280;72645;47.136;15.420;2024-01-30T07:29:13;98803.88;;;-3.52;70.11
82870;BME280;72645;47.136;15.420;2024-01-30T07:31:44;98807.38;;;-3.32;69.79
82870;BME280;72645;47.136;15.420;2024-01-30T07:34:15;98808.29;;;-3.12;69.74
82870;BME280;72645;47.136;15.420;2024-01-30T07:36:47;98805.49;;;-2.78;78.53
82870;BME280;72645;47.136;15.420;2024-01-30T07:39:18;98802.69;;;-1.94;83.70
82870;BME280;72645;47.136;15.420;2024-01-30T07:41:49;98804.87;;;-1.89;76.25
82870;BME280;72645;47.136;15.420;2024-01-30T07:44:20;98802.31;;;-1.90;72.70
82870;BME280;72645;47.136;15.420;2024-01-30T07:46:51;98799.56;;;-1.89;71.32
82870;BME280;72645;47.136;15.420;2024-01-30T07:49:22;98795.56;;;-1.86;70.76
82870;BME280;72645;47.136;15.420;2024-01-30T07:51:53;98795.17;;;-1.82;70.22
82870;BME280;72645;47.136;15.420;2024-01-30T07:54:24;98796.16;;;-1.77;69.92
82870;BME280;72645;47.136;15.420;2024-01-30T07:56:56;98802.96;;;-1.72;69.42
82870;BME280;72645;47.136;15.420;2024-01-30T07:59:27;98802.91;;;-1.67;69.00
82870;BME280;72645;47.136;15.420;2024-01-30T08:01:58;98801.13;;;-1.63;68.82
82870;BME280;72645;47.136;15.420;2024-01-30T08:04:29;98803.81;;;-1.57;68.60
82870;BME280;72645;47.136;15.420;2024-01-30T08:07:01;98803.42;;;-1.53;68.29
82870;BME280;72645;47.136;15.420;2024-01-30T08:09:32;98805.42;;;-1.49;68.49
82870;BME280;72645;47.136;15.420;2024-01-30T08:12:03;98804.48;;;-1.42;68.47
82870;BME280;72645;47.136;15.420;2024-01-30T08:14:35;98804.98;;;-1.39;68.48
82870;BME280;72645;47.136;15.420;2024-01-30T08:17:06;98808.83;;;-1.32;68.27
82870;BME280;72645;47.136;15.420;2024-01-30T08:19:37;98809.46;;;-1.28;67.98
82870;BME280;72645;47.136;15.420;2024-01-30T08:22:08;98807.33;;;-1.22;67.92
82870;BME280;72645;47.136;15.420;2024-01-30T08:24:40;98811.86;;;-1.14;67.95
82870;BME280;72645;47.136;15.420;2024-01-30T08:27:11;98809.48;;;-1.03;68.11
82870;BME280;72645;47.136;15.420;2024-01-30T08:29:42;98807.44;;;-0.93;67.69
82870;BME280;72645;47.136;15.420;2024-01-30T08:32:13;98811.71;;;-0.80;67.87
82870;BME280;72645;47.136;15.420;2024-01-30T08:34:44;98814.74;;;-0.64;67.61
82870;BME280;72645;47.136;15.420;2024-01-30T08:37:16;98811.00;;;-0.46;67.71
82870;BME280;72645;47.136;15.420;2024-01-30T08:39:47;98807.21;;;-0.25;67.19
82870;BME280;72645;47.136;15.420;2024-01-30T08:42:18;98803.90;;;-0.02;66.86
82870;BME280;72645;47.136;15.420;2024-01-30T08:44:52;98803.00;;;0.18;66.37
82870;BME280;72645;47.136;15.420;2024-01-30T08:47:23;98803.51;;;0.36;65.99
82870;BME280;72645;47.136;15.420;2024-01-30T08:49:54;98800.94;;;0.52;65.42
82870;BME280;72645;47.136;15.420;2024-01-30T08:52:26;98797.17;;;0.68;65.13
82870;BME280;72645;47.136;15.420;2024-01-30T08:54:57;98793.45;;;0.81;64.79
82870;BME280;72645;47.136;15.420;2024-01-30T08:57:28;98791.42;;;1.03;64.71
82870;BME280;72645;47.136;15.420;2024-01-30T09:00:00;98789.33;;;1.26;64.37
82870;BME280;72645;47.136;15.420;2024-01-30T09:02:36;98786.95;;;1.53;64.03
82870;BME280;72645;47.136;15.420;2024-01-30T09:05:08;98783.73;;;1.85;63.78
82870;BME280;72645;47.136;15.420;2024-01-30T09:07:40;98782.66;;;2.18;63.12
82870;BME280;72645;47.136;15.420;2024-01-30T09:10:11;98781.55;;;2.52;62.41
82870;BME280;72645;47.136;15.420;2024-01-30T09:12:44;98775.38;;;2.86;61.52
82870;BME280;72645;47.136;15.420;2024-01-30T09:15:16;98777.91;;;3.16;60.55
82870;BME280;72645;47.136;15.420;2024-01-30T09:17:47;98779.16;;;3.48;59.59
82870;BME280;72645;47.136;15.420;2024-01-30T09:20:18;98779.34;;;3.79;58.83
82870;BME280;72645;47.136;15.420;2024-01-30T09:22:51;98778.75;;;4.11;57.87
82870;BME280;72645;47.136;15.420;2024-01-30T09:25:23;98780.95;;;4.42;57.02
82870;BME280;72645;47.136;15.420;2024-01-30T09:27:54;98781.99;;;4.75;56.22
82870;BME280;72645;47.136;15.420;2024-01-30T09:30:25;98779.14;;;4.99;55.11
82870;BME280;72645;47.136;15.420;2024-01-30T09:32:56;98779.09;;;5.19;54.60
82870;BME280;72645;47.136;15.420;2024-01-30T09:35:27;98773.70;;;5.40;53.64
82870;BME280;72645;47.136;15.420;2024-01-30T09:37:59;98779.48;;;5.65;52.87
82870;BME280;72645;47.136;15.420;2024-01-30T09:40:30;98779.78;;;5.83;51.96
82870;BME280;72645;47.136;15.420;2024-01-30T09:43:01;98775.09;;;6.00;51.80
82870;BME280;72645;47.136;15.420;2024-01-30T09:45:34;98770.54;;;6.21;51.07
82870;BME280;72645;47.136;15.420;2024-01-30T09:48:06;98772.64;;;6.40;50.77
82870;BME280;72645;47.136;15.420;2024-01-30T09:50:38;98770.49;;;6.61;49.67
82870;BME280;72645;47.136;15.420;2024-01-30T09:53:09;98771.04;;;6.76;48.83
82870;BME280;72645;47.136;15.420;2024-01-30T09:55:44;98767.30;;;6.93;48.93
82870;BME280;72645;47.136;15.420;2024-01-30T09:58:16;98765.44;;;7.10;49.13
82870;BME280;72645;47.136;15.420;2024-01-30T10:00:47;98768.98;;;7.31;48.40
82870;BME280;72645;47.136;15.420;2024-01-30T10:03:18;98765.79;;;7.50;47.69
82870;BME280;72645;47.136;15.420;2024-01-30T10:05:52;98765.05;;;7.68;47.39
82870;BME280;72645;47.136;15.420;2024-01-30T10:08:23;98765.05;;;7.90;46.73
82870;BME280;72645;47.136;15.420;2024-01-30T10:10:54;98759.16;;;8.09;46.60
82870;BME280;72645;47.136;15.420;2024-01-30T10:13:25;98758.52;;;8.26;46.26
82870;BME280;72645;47.136;15.420;2024-01-30T10:15:57;98759.67;;;8.40;45.68
82870;BME280;72645;47.136;15.420;2024-01-30T10:18:29;98757.55;;;8.47;44.89
82870;BME280;72645;47.136;15.420;2024-01-30T10:21:00;98751.27;;;8.64;51.80
82870;BME280;72645;47.136;15.420;2024-01-30T10:23:32;98749.30;;;8.97;53.10
82870;BME280;72645;47.136;15.420;2024-01-30T10:26:06;98747.65;;;9.27;52.67
82870;BME280;72645;47.136;15.420;2024-01-30T10:28:38;98744.26;;;9.46;46.98
82870;BME280;72645;47.136;15.420;2024-01-30T10:31:09;98740.70;;;9.50;44.64
82870;BME280;72645;47.136;15.420;2024-01-30T10:33:40;98736.55;;;9.52;43.88
82870;BME280;72645;47.136;15.420;2024-01-30T10:36:14;98734.51;;;9.54;43.04
82870;BME280;72645;47.136;15.420;2024-01-30T10:38:52;98734.05;;;9.56;42.70
82870;BME280;72645;47.136;15.420;2024-01-30T10:41:27;98724.52;;;9.58;42.51
82870;BME280;72645;47.136;15.420;2024-01-30T10:44:10;98720.73;;;9.72;42.29
82870;BME280;72645;47.136;15.420;2024-01-30T10:46:44;98714.47;;;9.83;42.55
82870;BME280;72645;47.136;15.420;2024-01-30T10:49:19;98710.35;;;9.96;41.94
82870;BME280;72645;47.136;15.420;2024-01-30T10:51:52;98708.32;;;10.07;41.34
82870;BME280;72645;47.136;15.420;2024-01-30T10:54:24;98705.16;;;10.19;41.27
82870;BME280;72645;47.136;15.420;2024-01-30T10:56:56;98704.02;;;10.24;40.86
82870;BME280;72645;47.136;15.420;2024-01-30T10:59:28;98697.71;;;10.24;40.80
82870;BME280;72645;47.136;15.420;2024-01-30T11:02:01;98693.81;;;10.33;40.52
82870;BME280;72645;47.136;15.420;2024-01-30T11:04:40;98688.27;;;10.38;40.30
82870;BME280;72645;47.136;15.420;2024-01-30T11:07:18;98685.69;;;10.40;40.32
82870;BME280;72645;47.136;15.420;2024-01-30T11:10:01;98683.71;;;10.44;40.09
82870;BME280;72645;47.136;15.420;2024-01-30T11:12:37;98680.09;;;10.48;39.83
82870;BME280;72645;47.136;15.420;2024-01-30T11:15:11;98675.35;;;10.57;39.85
82870;BME280;72645;47.136;15.420;2024-01-30T11:17:45;98674.50;;;10.70;40.01
82870;BME280;72645;47.136;15.420;2024-01-30T11:20:19;98672.98;;;10.80;39.45
82870;BME280;72645;47.136;15.420;2024-01-30T11:22:52;98671.73;;;10.83;39.84
82870;BME280;72645;47.136;15.420;2024-01-30T11:25:25;98671.50;;;10.84;39.30
82870;BME280;72645;47.136;15.420;2024-01-30T11:27:57;98671.15;;;10.92;39.24
82870;BME280;72645;47.136;15.420;2024-01-30T11:30:29;98667.54;;;10.99;38.87
82870;BME280;72645;47.136;15.420;2024-01-30T11:33:04;98662.41;;;11.05;38.83
82870;BME280;72645;47.136;15.420;2024-01-30T11:35:38;98661.10;;;11.15;38.83
82870;BME280;72645;47.136;15.420;2024-01-30T11:38:10;98658.11;;;11.20;38.73
82870;BME280;72645;47.136;15.420;2024-01-30T11:40:42;98659.84;;;11.31;38.49
82870;BME280;72645;47.136;15.420;2024-01-30T11:43:14;98656.25;;;11.35;38.64
82870;BME280;72645;47.136;15.420;2024-01-30T11:45:46;98652.89;;;11.38;38.41
82870;BME280;72645;47.136;15.420;2024-01-30T11:48:18;98654.79;;;11.41;38.29
82870;BME280;72645;47.136;15.420;2024-01-30T11:50:50;98654.05;;;11.42;37.88
82870;BME280;72645;47.136;15.420;2024-01-30T11:53:21;98652.66;;;11.44;37.87
82870;BME280;72645;47.136;15.420;2024-01-30T11:55:53;98649.61;;;11.51;38.11
82870;BME280;72645;47.136;15.420;2024-01-30T11:58:27;98646.36;;;11.57;38.06
82870;BME280;72645;47.136;15.420;2024-01-30T12:00:58;98641.84;;;11.62;37.65
82870;BME280;72645;47.136;15.420;2024-01-30T12:03:30;98644.20;;;11.61;37.52
82870;BME280;72645;47.136;15.420;2024-01-30T12:06:02;98644.35;;;11.53;37.21
82870;BME280;72645;47.136;15.420;2024-01-30T12:08:34;98641.04;;;11.45;37.72
82870;BME280;72645;47.136;15.420;2024-01-30T12:11:08;98637.55;;;11.45;37.28
82870;BME280;72645;47.136;15.420;2024-01-30T12:13:39;98631.96;;;11.39;37.61
82870;BME280;72645;47.136;15.420;2024-01-30T12:16:10;98627.72;;;11.29;37.53
82870;BME280;72645;47.136;15.420;2024-01-30T12:18:43;98629.67;;;11.32;38.10
82870;BME280;72645;47.136;15.420;2024-01-30T12:21:17;98626.15;;;11.37;37.84
82870;BME280;72645;47.136;15.420;2024-01-30T12:23:48;98620.08;;;11.46;38.08
82870;BME280;72645;47.136;15.420;2024-01-30T12:26:19;98620.38;;;11.58;37.86
82870;BME280;72645;47.136;15.420;2024-01-30T12:28:53;98618.86;;;11.65;37.53
82870;BME280;72645;47.136;15.420;2024-01-30T12:31:28;98614.48;;;11.76;37.67
82870;BME280;72645;47.136;15.420;2024-01-30T12:34:01;98615.22;;;11.82;37.12
82870;BME280;72645;47.136;15.420;2024-01-30T12:36:32;98616.63;;;11.85;37.12
82870;BME280;72645;47.136;15.420;2024-01-30T12:39:03;98616.09;;;11.88;36.74
82870;BME280;72645;47.136;15.420;2024-01-30T12:41:36;98612.31;;;11.92;36.73
82870;BME280;72645;47.136;15.420;2024-01-30T12:44:07;98614.97;;;11.93;36.67
82870;BME280;72645;47.136;15.420;2024-01-30T12:46:38;98611.31;;;11.96;36.31
82870;BME280;72645;47.136;15.420;2024-01-30T12:49:10;98606.42;;;11.98;36.53
82870;BME280;72645;47.136;15.420;2024-01-30T12:51:41;98606.84;;;11.97;36.51
82870;BME280;72645;47.136;15.420;2024-01-30T12:54:14;98604.77;;;11.99;36.24
82870;BME280;72645;47.136;15.420;2024-01-30T12:56:45;98601.93;;;11.94;36.29
82870;BME280;72645;47.136;15.420;2024-01-30T12:59:16;98600.31;;;11.93;36.39
82870;BME280;72645;47.136;15.420;2024-01-30T13:01:47;98594.05;;;11.89;36.28
82870;BME280;72645;47.136;15.420;2024-01-30T13:04:18;98588.70;;;11.95;36.57
82870;BME280;72645;47.136;15.420;2024-01-30T13:06:50;98594.07;;;12.04;36.12
82870;BME280;72645;47.136;15.420;2024-01-30T13:09:21;98592.77;;;12.10;36.23
82870;BME280;72645;47.136;15.420;2024-01-30T13:11:52;98591.57;;;12.12;36.15
82870;BME280;72645;47.136;15.420;2024-01-30T13:14:23;98590.98;;;12.15;36.13